createdAt,value
2019-03-06T00:01:24.788Z,78.00
2019-03-06T00:03:54.749Z,78.10
2019-03-06T00:06:25.262Z,78.20
2019-03-06T00:08:54.815Z,77.90
2019-03-06T00:11:24.542Z,78.10
2019-03-06T00:13:54.076Z,78.20
2019-03-06T00:16:23.649Z,78.50
2019-03-06T00:18:53.195Z,78.90
2019-03-06T00:21:23.183Z,79.40
2019-03-06T00:23:52.740Z,79.80
2019-03-06T00:26:22.672Z,80.10
2019-03-06T00:28:52.264Z,80.30
2019-03-06T00:31:21.819Z,80.10
2019-03-06T00:33:52.041Z,80.30
2019-03-06T00:36:24.792Z,80.50
2019-03-06T00:38:54.371Z,80.50
2019-03-06T00:41:41.954Z,80.60
2019-03-06T00:44:11.624Z,80.50
2019-03-06T00:46:41.185Z,80.30
2019-03-06T00:49:10.732Z,79.90
2019-03-06T00:51:40.309Z,79.00
2019-03-06T00:54:10.486Z,79.00
2019-03-06T00:56:40.040Z,79.20
2019-03-06T00:59:09.983Z,80.10
2019-03-06T01:01:39.749Z,80.30
2019-03-06T01:04:09.278Z,80.50
2019-03-06T01:06:38.844Z,80.70
2019-03-06T01:09:09.593Z,81.10
2019-03-06T01:11:39.177Z,81.20
2019-03-06T01:14:08.740Z,81.00
2019-03-06T01:16:38.401Z,81.80
2019-03-06T01:19:07.886Z,81.40
2019-03-06T01:21:37.470Z,81.20
2019-03-06T01:24:07.067Z,81.70
2019-03-06T01:26:36.625Z,81.50
2019-03-06T01:29:06.836Z,82.00
2019-03-06T01:31:36.411Z,81.70
2019-03-06T01:34:23.441Z,81.70
2019-03-06T01:37:14.914Z,82.00
2019-03-06T01:39:56.655Z,81.80
2019-03-06T01:42:48.541Z,82.10
2019-03-06T01:45:18.282Z,82.00
2019-03-06T01:47:47.850Z,82.90
2019-03-06T01:50:17.417Z,83.50
2019-03-06T01:52:47.141Z,84.30
2019-03-06T01:55:16.938Z,84.30
2019-03-06T01:57:46.479Z,84.00
2019-03-06T02:00:19.748Z,84.00
2019-03-06T02:02:49.341Z,84.00
2019-03-06T02:05:19.362Z,83.90
2019-03-06T02:07:49.056Z,84.20
2019-03-06T02:10:18.954Z,84.70
2019-03-06T02:12:48.812Z,84.50
2019-03-06T02:15:19.025Z,84.20
2019-03-06T02:17:48.576Z,84.40
2019-03-06T02:20:18.625Z,84.70
2019-03-06T02:22:48.188Z,85.10
2019-03-06T02:25:17.947Z,84.90
2019-03-06T02:27:47.591Z,85.00
2019-03-06T02:30:19.634Z,85.10
2019-03-06T02:32:49.229Z,85.00
2019-03-06T02:35:19.059Z,85.30
2019-03-06T02:37:49.024Z,85.40
2019-03-06T02:40:18.952Z,86.00
2019-03-06T02:42:48.507Z,85.70
2019-03-06T02:45:18.126Z,85.90
2019-03-06T02:47:47.679Z,86.20
2019-03-06T02:50:17.621Z,86.20
2019-03-06T02:52:47.186Z,86.20
2019-03-06T02:55:17.307Z,86.50
2019-03-06T02:58:01.675Z,86.30
2019-03-06T03:00:50.572Z,86.40
2019-03-06T03:03:29.714Z,86.60
2019-03-06T03:06:02.958Z,86.30
2019-03-06T03:08:33.024Z,86.70
2019-03-06T03:11:02.908Z,87.10
2019-03-06T03:13:32.463Z,86.90
2019-03-06T03:16:02.041Z,86.70
2019-03-06T03:18:31.713Z,86.70
2019-03-06T03:21:01.777Z,86.70
2019-03-06T03:23:31.666Z,86.80
2019-03-06T03:26:01.210Z,86.70
2019-03-06T03:28:31.196Z,87.00
2019-03-06T03:31:01.006Z,87.10
2019-03-06T03:33:32.364Z,86.80
2019-03-06T03:36:01.950Z,86.90
2019-03-06T03:38:31.584Z,87.10
2019-03-06T03:41:01.604Z,87.30
2019-03-06T03:43:31.174Z,87.40
2019-03-06T03:46:19.769Z,87.40
2019-03-06T03:49:08.650Z,86.70
2019-03-06T04:03:42.177Z,86.60
2019-03-06T04:06:15.093Z,86.60
2019-03-06T04:08:48.382Z,86.50
2019-03-06T04:11:55.467Z,86.40
2019-03-06T04:19:59.319Z,86.00
2019-03-06T04:22:48.282Z,85.20
2019-03-06T04:25:37.688Z,86.10
2019-03-06T04:28:28.797Z,86.30
2019-03-06T04:31:36.422Z,86.40
2019-03-06T04:37:26.104Z,85.40
2019-03-06T04:40:14.887Z,86.00
2019-03-06T04:42:47.334Z,85.50
2019-03-06T04:45:17.139Z,85.20
2019-03-06T04:51:16.561Z,86.10
2019-03-06T04:54:24.111Z,86.60
2019-03-06T04:56:56.764Z,86.30
2019-03-06T04:59:45.679Z,86.30
2019-03-06T05:02:34.294Z,86.30
2019-03-06T05:05:23.288Z,86.30
2019-03-06T05:08:11.842Z,86.00
2019-03-06T05:11:00.448Z,85.60
2019-03-06T05:13:49.398Z,85.90
2019-03-06T05:16:56.821Z,85.60
2019-03-06T05:19:45.360Z,85.50
2019-03-06T05:22:33.855Z,86.20
2019-03-06T05:28:25.129Z,86.00
2019-03-06T05:34:09.484Z,86.40
2019-03-06T05:37:17.063Z,86.60
2019-03-06T05:40:05.780Z,86.60
2019-03-06T05:42:54.378Z,86.40
2019-03-06T05:45:24.004Z,85.80
2019-03-06T05:48:12.850Z,86.80
2019-03-06T05:51:01.865Z,85.80
2019-03-06T05:53:42.699Z,86.30
2019-03-06T06:02:13.145Z,86.70
2019-03-06T06:04:54.481Z,86.30
2019-03-06T06:07:36.466Z,86.00
2019-03-06T06:10:17.831Z,86.20
2019-03-06T06:15:47.858Z,85.20
2019-03-06T06:24:31.824Z,85.70
2019-03-06T06:27:17.522Z,86.30
2019-03-06T06:29:47.556Z,86.90
2019-03-06T06:32:38.471Z,88.00
2019-03-06T06:35:27.272Z,88.10
2019-03-06T06:38:15.941Z,88.30
2019-03-06T06:46:42.345Z,87.60
2019-03-06T06:55:07.881Z,86.90
2019-03-06T06:57:53.841Z,86.60
2019-03-06T07:00:34.662Z,86.00
2019-03-06T07:06:20.578Z,85.70
2019-03-06T07:23:53.734Z,85.70
2019-03-06T07:29:58.788Z,85.00
2019-03-06T07:33:07.884Z,84.10
2019-03-06T07:36:17.811Z,84.20
2019-03-06T07:45:50.130Z,83.60
2019-03-06T07:49:16.639Z,83.90
2019-03-06T07:52:05.399Z,82.90
2019-03-06T07:58:01.877Z,83.60
2019-03-06T08:04:15.278Z,82.10
2019-03-06T08:10:32.839Z,81.00
2019-03-06T08:13:40.275Z,82.00
2019-03-06T08:16:28.726Z,81.80
2019-03-06T08:19:07.260Z,82.00
2019-03-06T08:22:15.622Z,81.50
2019-03-06T08:25:06.986Z,80.10
2019-03-06T08:27:55.483Z,80.50
2019-03-06T08:33:46.180Z,80.10
2019-03-06T08:36:34.761Z,80.30
2019-03-06T08:45:22.765Z,79.30
2019-03-06T08:54:25.486Z,78.20
2019-03-06T08:57:25.068Z,77.50
2019-03-06T09:00:27.803Z,78.30
2019-03-06T09:03:28.252Z,78.40
2019-03-06T09:06:16.719Z,77.50
2019-03-06T09:15:52.128Z,75.70
2019-03-06T09:22:02.005Z,75.00
2019-03-06T09:25:05.134Z,74.00
2019-03-06T09:31:34.512Z,72.90
2019-03-06T09:34:41.947Z,73.40
2019-03-06T09:37:36.812Z,73.30
2019-03-06T09:40:36.137Z,72.10
2019-03-06T09:43:43.623Z,71.60
2019-03-06T09:46:37.900Z,72.20
2019-03-06T09:49:43.501Z,71.70
2019-03-06T09:52:37.492Z,71.50
2019-03-06T09:56:01.814Z,71.30
2019-03-06T09:58:56.904Z,70.00
2019-03-06T10:01:45.621Z,69.70
2019-03-06T10:04:55.839Z,70.50
2019-03-06T10:07:44.414Z,70.20
2019-03-06T10:18:12.638Z,68.80
2019-03-06T10:24:30.259Z,68.10
2019-03-06T10:27:24.193Z,67.80
2019-03-06T10:30:08.762Z,68.40
2019-03-06T10:33:06.141Z,67.70
2019-03-06T10:35:46.671Z,66.30
2019-03-06T10:38:34.750Z,66.30
2019-03-06T10:41:15.215Z,66.20
2019-03-06T10:43:48.860Z,64.20
2019-03-06T10:46:13.079Z,65.00
2019-03-06T10:48:42.540Z,64.20
2019-03-06T10:51:12.233Z,62.30
2019-03-06T10:53:42.711Z,61.20
2019-03-06T11:02:11.241Z,59.60
2019-03-06T11:04:50.940Z,58.40
2019-03-06T11:07:22.691Z,58.60
2019-03-06T11:09:52.630Z,58.80
2019-03-06T11:12:22.194Z,56.50
2019-03-06T11:14:51.725Z,56.60
2019-03-06T11:17:23.754Z,57.00
2019-03-06T11:19:53.586Z,57.10
2019-03-06T11:22:23.771Z,57.20
2019-03-06T11:25:16.452Z,57.60
2019-03-06T11:27:49.892Z,57.70
2019-03-06T11:30:32.666Z,56.80
2019-03-06T11:33:02.606Z,55.20
2019-03-06T11:35:34.161Z,56.10
2019-03-06T11:38:04.047Z,55.40
2019-03-06T11:40:35.344Z,56.50
2019-03-06T11:43:06.309Z,56.00
2019-03-06T11:45:36.683Z,55.80
2019-03-06T11:48:07.053Z,56.30
2019-03-06T11:50:40.832Z,56.60
2019-03-06T11:53:08.348Z,56.60
2019-03-06T11:55:38.747Z,57.10
2019-03-06T11:58:09.228Z,56.10
2019-03-06T12:00:42.646Z,55.70
2019-03-06T12:03:13.049Z,55.70
2019-03-06T12:05:42.709Z,56.40
2019-03-06T12:08:14.351Z,56.10
2019-03-06T12:10:44.124Z,55.60
2019-03-06T12:13:17.230Z,55.50
2019-03-06T12:15:50.751Z,55.00
2019-03-06T12:18:22.183Z,55.10
2019-03-06T12:20:51.905Z,55.70
2019-03-06T12:23:21.738Z,55.00
2019-03-06T12:25:51.507Z,56.10
2019-03-06T12:28:21.066Z,56.10
2019-03-06T12:30:50.717Z,55.30
2019-03-06T12:33:23.014Z,55.60
2019-03-06T12:35:52.988Z,55.50
2019-03-06T12:38:22.669Z,55.20
2019-03-06T12:40:52.268Z,54.20
2019-03-06T12:43:22.036Z,54.30
2019-03-06T12:46:30.127Z,54.50
2019-03-06T12:49:01.521Z,54.90
2019-03-06T12:51:32.216Z,53.20
2019-03-06T12:54:03.053Z,53.70
2019-03-06T12:56:33.072Z,53.30
2019-03-06T12:59:02.672Z,54.50
2019-03-06T13:01:32.345Z,53.80
2019-03-06T13:04:02.196Z,53.60
2019-03-06T13:06:31.949Z,53.70
2019-03-06T13:09:02.594Z,53.60
2019-03-06T13:11:32.311Z,52.90
2019-03-06T13:14:01.889Z,52.30
2019-03-06T13:16:31.447Z,52.70
2019-03-06T13:19:01.437Z,52.90
2019-03-06T13:21:30.971Z,53.70
2019-03-06T13:24:00.969Z,53.40
2019-03-06T13:26:30.573Z,52.90
2019-03-06T13:29:00.377Z,53.40
2019-03-06T13:31:30.020Z,53.20
2019-03-06T13:34:24.766Z,53.10
2019-03-06T13:36:54.455Z,52.80
2019-03-06T13:39:24.450Z,52.30
2019-03-06T13:41:54.399Z,51.80
2019-03-06T13:44:24.013Z,51.10
2019-03-06T13:46:53.597Z,49.50
2019-03-06T13:49:23.153Z,49.40
2019-03-06T13:51:52.810Z,48.80
2019-03-06T13:54:22.396Z,49.00
2019-03-06T13:56:52.103Z,49.20
2019-03-06T13:59:21.883Z,48.40
2019-03-06T14:01:51.430Z,48.20
2019-03-06T14:04:21.037Z,47.40
2019-03-06T14:06:50.619Z,47.70
2019-03-06T14:09:20.231Z,47.70
2019-03-06T14:11:50.149Z,47.90
2019-03-06T14:14:19.787Z,48.60
2019-03-06T14:16:49.446Z,47.50
2019-03-06T14:19:19.138Z,46.60
2019-03-06T14:21:48.891Z,45.60
2019-03-06T14:24:19.241Z,44.40
2019-03-06T14:26:49.154Z,44.30
2019-03-06T14:29:18.840Z,43.20
2019-03-06T14:31:49.357Z,42.50
2019-03-06T14:34:18.944Z,42.50
2019-03-06T14:36:48.516Z,42.60
2019-03-06T14:39:26.855Z,42.00
2019-03-06T14:41:57.931Z,42.00
2019-03-06T14:44:27.504Z,42.20
2019-03-06T14:46:57.204Z,42.00
2019-03-06T14:49:27.128Z,41.70
2019-03-06T14:51:56.729Z,40.90
2019-03-06T14:54:26.340Z,40.60
2019-03-06T14:56:56.352Z,41.10
2019-03-06T14:59:26.125Z,41.90
2019-03-06T15:01:56.079Z,42.30
2019-03-06T15:04:26.199Z,42.90
2019-03-06T15:06:55.808Z,43.00
2019-03-06T15:09:26.879Z,42.90
2019-03-06T15:11:56.488Z,43.60
2019-03-06T15:14:35.566Z,43.50
2019-03-06T15:16:57.502Z,43.50
2019-03-06T15:19:27.463Z,43.50
2019-03-06T15:21:57.150Z,43.70
2019-03-06T15:24:26.708Z,43.70
2019-03-06T15:26:56.446Z,43.80
2019-03-06T15:29:25.979Z,44.00
2019-03-06T15:31:55.832Z,44.10
2019-03-06T15:34:25.418Z,44.60
2019-03-06T15:36:54.987Z,45.10
2019-03-06T15:39:42.546Z,45.40
2019-03-06T15:42:11.233Z,45.40
2019-03-06T15:44:40.808Z,45.70
2019-03-06T15:53:24.513Z,45.70
2019-03-06T15:56:01.845Z,45.40
2019-03-06T15:58:43.105Z,46.00
2019-03-06T16:01:25.202Z,45.60
2019-03-06T16:03:55.558Z,46.50
2019-03-06T16:06:25.488Z,46.40
2019-03-06T16:12:17.086Z,46.80
2019-03-06T16:15:03.834Z,47.20
2019-03-06T16:17:52.688Z,47.50
2019-03-06T16:23:44.736Z,47.90
2019-03-06T16:26:33.509Z,48.30
2019-03-06T16:29:23.702Z,48.20
2019-03-06T16:32:04.608Z,49.10
2019-03-06T16:34:37.333Z,49.40
2019-03-06T16:37:26.113Z,49.50
2019-03-06T16:40:15.940Z,49.80
2019-03-06T16:43:06.049Z,49.50
2019-03-06T16:45:54.701Z,50.30
2019-03-06T16:51:20.706Z,51.50
2019-03-06T16:54:11.083Z,51.40
2019-03-06T16:59:48.820Z,52.00
2019-03-06T17:05:22.754Z,52.20
2019-03-06T17:08:03.831Z,52.20
2019-03-06T17:13:41.571Z,53.50
2019-03-06T17:16:11.463Z,53.50
2019-03-06T17:19:00.090Z,54.50
2019-03-06T17:24:41.297Z,55.50
2019-03-06T17:33:40.281Z,58.20
2019-03-06T17:36:28.849Z,58.30
2019-03-06T17:39:18.158Z,58.20
2019-03-06T17:42:06.661Z,58.00
2019-03-06T17:44:55.243Z,58.50
2019-03-06T17:47:24.802Z,58.00
2019-03-06T17:49:54.411Z,58.30
2019-03-06T17:52:43.120Z,58.20
2019-03-06T17:55:31.728Z,58.50
2019-03-06T17:58:15.448Z,57.90
2019-03-06T18:03:52.467Z,58.10
2019-03-06T18:06:35.174Z,58.70
2019-03-06T18:09:16.045Z,59.00
2019-03-06T18:14:46.237Z,59.00
2019-03-06T18:23:07.027Z,61.40
2019-03-06T18:31:27.382Z,70.00
2019-03-06T18:34:08.899Z,70.00
2019-03-06T18:39:28.821Z,71.70
2019-03-06T18:45:12.257Z,76.30
2019-03-06T18:50:35.701Z,77.00
2019-03-06T18:59:17.927Z,79.40
2019-03-06T19:02:26.984Z,80.70
2019-03-06T19:05:15.629Z,81.20
2019-03-06T19:08:04.640Z,78.90
2019-03-06T19:10:55.201Z,78.70
2019-03-06T19:16:35.682Z,76.60
2019-03-06T19:19:24.287Z,76.10
2019-03-06T19:22:12.972Z,77.30
2019-03-06T19:30:57.733Z,76.80
2019-03-06T19:36:23.516Z,75.40
2019-03-06T19:39:12.440Z,76.60
2019-03-06T19:42:01.327Z,76.90
2019-03-06T19:47:47.483Z,77.70
2019-03-06T19:50:19.240Z,77.50
2019-03-06T19:59:23.183Z,79.30
2019-03-06T20:01:53.468Z,76.30
2019-03-06T20:04:42.176Z,80.10
2019-03-06T20:07:30.768Z,80.30
2019-03-06T20:10:19.750Z,79.90
2019-03-06T20:13:08.547Z,79.90
2019-03-06T20:15:57.224Z,80.10
2019-03-06T20:18:27.079Z,80.60
2019-03-06T20:21:16.038Z,81.20
2019-03-06T20:24:04.607Z,81.90
2019-03-06T20:26:53.325Z,82.20
2019-03-06T20:29:41.923Z,82.60
2019-03-06T20:32:30.845Z,82.30
2019-03-06T20:35:22.791Z,82.10
2019-03-06T20:41:03.745Z,82.00
2019-03-06T20:43:52.403Z,82.60
2019-03-06T20:46:41.056Z,82.20
2019-03-06T20:49:12.145Z,82.00
2019-03-06T20:52:00.828Z,82.30
2019-03-06T20:54:49.457Z,81.20
2019-03-06T20:57:31.780Z,81.50
2019-03-06T21:03:02.521Z,82.10
2019-03-06T21:05:51.424Z,82.80
2019-03-06T21:08:40.291Z,82.00
2019-03-06T21:11:09.900Z,82.30
2019-03-06T21:13:58.920Z,82.80
2019-03-06T21:16:51.183Z,82.60
2019-03-06T21:19:42.996Z,82.60
2019-03-06T21:25:29.606Z,81.20
2019-03-06T21:31:07.487Z,82.40
2019-03-06T21:33:56.183Z,81.80
2019-03-06T21:36:44.784Z,81.00
2019-03-06T21:39:33.722Z,80.90
2019-03-06T21:42:03.493Z,81.80
2019-03-06T21:44:55.036Z,81.40
2019-03-06T21:47:43.898Z,81.30
2019-03-06T21:50:13.730Z,81.30
2019-03-06T21:52:44.022Z,81.90
2019-03-06T21:55:14.020Z,81.60
2019-03-06T21:57:43.884Z,81.20
2019-03-06T22:00:17.668Z,82.60
2019-03-06T22:02:47.218Z,81.60
2019-03-06T22:05:16.932Z,82.50
2019-03-06T22:07:46.720Z,83.40
2019-03-06T22:10:17.065Z,84.50
2019-03-06T22:12:46.745Z,84.50
2019-03-06T22:15:16.431Z,84.70
2019-03-06T22:17:45.962Z,84.00
2019-03-06T22:20:16.854Z,83.30
2019-03-06T22:22:46.389Z,84.50
2019-03-06T22:25:16.619Z,84.60
2019-03-06T22:27:46.327Z,84.00
2019-03-06T22:30:17.975Z,84.50
2019-03-06T22:32:48.018Z,84.60
2019-03-06T22:35:17.701Z,85.00
2019-03-06T22:37:47.237Z,85.40
2019-03-06T22:40:17.845Z,84.60
2019-03-06T22:42:47.514Z,85.20
2019-03-06T22:45:17.503Z,85.20
2019-03-06T22:47:47.081Z,84.90
2019-03-06T22:50:16.982Z,84.00
2019-03-06T22:52:46.612Z,84.00
2019-03-06T22:55:16.666Z,83.80
2019-03-06T22:57:46.240Z,84.10
2019-03-06T23:00:32.521Z,84.00
2019-03-06T23:03:02.238Z,84.50
2019-03-06T23:05:32.559Z,85.20
2019-03-06T23:08:02.132Z,85.80
2019-03-06T23:10:32.043Z,85.90
2019-03-06T23:13:01.639Z,86.10
2019-03-06T23:15:31.477Z,86.30
2019-03-06T23:18:01.252Z,86.60
2019-03-06T23:20:30.838Z,86.90
2019-03-06T23:23:00.388Z,87.20
2019-03-06T23:25:49.430Z,87.20
2019-03-06T23:28:18.990Z,85.90
2019-03-06T23:30:48.576Z,87.60
2019-03-06T23:33:18.771Z,87.40
2019-03-06T23:35:48.522Z,86.70
2019-03-06T23:38:18.400Z,86.80
2019-03-06T23:40:48.219Z,87.70
2019-03-06T23:43:17.850Z,87.30
2019-03-06T23:45:47.367Z,87.70
2019-03-06T23:48:17.215Z,87.50
2019-03-06T23:50:47.399Z,87.60
2019-03-06T23:53:19.336Z,88.00
2019-03-06T23:55:48.873Z,87.50
2019-03-06T23:58:18.512Z,87.90
